Hanley, Canada
Current Conditions -  °F | °C
As of 3:00 PM on Thursday 23 Oct 2014 (Local Time) from CYXE Reporting Station
Broken Clouds Broken Clouds  
Wind Chill: 57°   Ceiling: 25000
Heat Index: 57°   Visibility: 15mi
Dew Point: 45°   Wind: 14mph
Humidity: 63%   Direction: 190°S
Pressure: 29.55"   Gusts: NA
Location:  51.62°N, 106.43°W
Report Text: CYXE 232100Z 19012KT 15SM FEW140 BKN250 14/07 A2955 RMK AC2CI5 SLP023 DENSITY ALT 2300FT
Loading
Personal Weather Stations






























Interactive Weather Map
Tropical Storm Tracking
New forecast layout! Learn more

10-Day Weather Forecast

Advertisements
Track Severe Weather on mobile